sensor_id;sensor_type;location;lat;lon;timestamp;temperature;humidity
28244;DHT22;15510;52.512;13.300;2022-10-17T00:00:37;15.00;99.90
28244;DHT22;15510;52.512;13.300;2022-10-17T00:03:02;15.00;99.90
28244;DHT22;15510;52.512;13.300;2022-10-17T00:05:28;15.00;99.90
28244;DHT22;15510;52.512;13.300;2022-10-17T00:07:54;15.00;99.90
28244;DHT22;15510;52.512;13.300;2022-10-17T00:10:20;15.00;99.90
28244;DHT22;15510;52.512;13.300;2022-10-17T00:12:46;15.10;99.90
28244;DHT22;15510;52.512;13.300;2022-10-17T00:15:15;15.10;99.90
28244;DHT22;15510;52.512;13.300;2022-10-17T00:17:41;15.20;99.90
28244;DHT22;15510;52.512;13.300;2022-10-17T00:20:07;15.20;99.90
28244;DHT22;15510;52.512;13.300;2022-10-17T00:22:33;15.30;99.90
28244;DHT22;15510;52.512;13.300;2022-10-17T00:24:59;15.30;99.90
28244;DHT22;15510;52.512;13.300;2022-10-17T00:27:24;15.20;99.90
28244;DHT22;15510;52.512;13.300;2022-10-17T00:29:51;15.20;99.90
28244;DHT22;15510;52.512;13.300;2022-10-17T00:32:17;15.20;99.90
28244;DHT22;15510;52.512;13.300;2022-10-17T00:34:44;15.20;99.90
28244;DHT22;15510;52.512;13.300;2022-10-17T00:37:09;15.20;99.90
28244;DHT22;15510;52.512;13.300;2022-10-17T00:39:35;15.20;99.90
28244;DHT22;15510;52.512;13.300;2022-10-17T00:42:01;15.10;99.90
28244;DHT22;15510;52.512;13.300;2022-10-17T00:46:56;15.20;99.90
28244;DHT22;15510;52.512;13.300;2022-10-17T00:49:23;15.20;99.90
28244;DHT22;15510;52.512;13.300;2022-10-17T00:51:56;15.30;99.90
28244;DHT22;15510;52.512;13.300;2022-10-17T00:54:27;15.30;99.90
28244;DHT22;15510;52.512;13.300;2022-10-17T00:56:55;15.30;99.90
28244;DHT22;15510;52.512;13.300;2022-10-17T00:59:22;15.30;99.90
28244;DHT22;15510;52.512;13.300;2022-10-17T01:01:55;15.40;99.90
28244;DHT22;15510;52.512;13.300;2022-10-17T01:04:25;15.40;99.90
28244;DHT22;15510;52.512;13.300;2022-10-17T01:06:51;15.30;99.90
28244;DHT22;15510;52.512;13.300;2022-10-17T01:09:17;15.30;99.90
28244;DHT22;15510;52.512;13.300;2022-10-17T01:11:55;15.20;99.90
28244;DHT22;15510;52.512;13.300;2022-10-17T01:17:26;15.10;99.90
28244;DHT22;15510;52.512;13.300;2022-10-17T01:22:49;15.00;99.90
28244;DHT22;15510;52.512;13.300;2022-10-17T01:26:02;14.90;99.90
28244;DHT22;15510;52.512;13.300;2022-10-17T01:28:55;14.90;99.90
28244;DHT22;15510;52.512;13.300;2022-10-17T01:31:34;14.90;99.90
28244;DHT22;15510;52.512;13.300;2022-10-17T01:34:08;14.90;99.90
28244;DHT22;15510;52.512;13.300;2022-10-17T01:36:56;14.90;99.90
28244;DHT22;15510;52.512;13.300;2022-10-17T01:39:45;14.90;99.90
28244;DHT22;15510;52.512;13.300;2022-10-17T01:42:18;14.90;99.90
28244;DHT22;15510;52.512;13.300;2022-10-17T01:44:54;14.90;99.90
28244;DHT22;15510;52.512;13.300;2022-10-17T01:47:26;14.80;99.90
28244;DHT22;15510;52.512;13.300;2022-10-17T01:49:56;14.80;99.90
28244;DHT22;15510;52.512;13.300;2022-10-17T01:52:32;14.80;99.90
28244;DHT22;15510;52.512;13.300;2022-10-17T01:55:12;14.80;99.90
28244;DHT22;15510;52.512;13.300;2022-10-17T01:57:49;14.80;99.90
28244;DHT22;15510;52.512;13.300;2022-10-17T02:00:19;14.70;99.90
28244;DHT22;15510;52.512;13.300;2022-10-17T02:02:57;14.70;99.90
28244;DHT22;15510;52.512;13.300;2022-10-17T02:05:27;14.70;99.90
28244;DHT22;15510;52.512;13.300;2022-10-17T02:07:53;14.70;99.90
28244;DHT22;15510;52.512;13.300;2022-10-17T02:10:35;14.60;99.90
28244;DHT22;15510;52.512;13.300;2022-10-17T02:13:08;14.60;99.90
28244;DHT22;15510;52.512;13.300;2022-10-17T02:18:39;14.60;99.90
28244;DHT22;15510;52.512;13.300;2022-10-17T02:21:17;14.60;99.90
28244;DHT22;15510;52.512;13.300;2022-10-17T02:26:55;14.60;99.90
28244;DHT22;15510;52.512;13.300;2022-10-17T02:29:30;14.60;99.90
28244;DHT22;15510;52.512;13.300;2022-10-17T02:34:37;14.70;99.90
28244;DHT22;15510;52.512;13.300;2022-10-17T02:37:06;14.80;99.90
28244;DHT22;15510;52.512;13.300;2022-10-17T02:39:34;14.80;99.90
28244;DHT22;15510;52.512;13.300;2022-10-17T02:42:02;14.80;99.90
28244;DHT22;15510;52.512;13.300;2022-10-17T02:44:29;14.80;99.90
28244;DHT22;15510;52.512;13.300;2022-10-17T02:47:03;14.70;99.90
28244;DHT22;15510;52.512;13.300;2022-10-17T02:49:36;14.70;99.90
28244;DHT22;15510;52.512;13.300;2022-10-17T02:54:57;14.70;99.90
28244;DHT22;15510;52.512;13.300;2022-10-17T02:57:30;14.80;99.90
28244;DHT22;15510;52.512;13.300;2022-10-17T03:00:00;14.70;99.90
28244;DHT22;15510;52.512;13.300;2022-10-17T03:02:26;14.70;99.90
28244;DHT22;15510;52.512;13.300;2022-10-17T03:04:53;14.70;99.90
28244;DHT22;15510;52.512;13.300;2022-10-17T03:07:18;14.70;99.90
28244;DHT22;15510;52.512;13.300;2022-10-17T03:09:44;14.70;99.90
28244;DHT22;15510;52.512;13.300;2022-10-17T03:12:10;14.70;99.90
28244;DHT22;15510;52.512;13.300;2022-10-17T03:14:35;14.70;99.90
28244;DHT22;15510;52.512;13.300;2022-10-17T03:17:02;14.70;99.90
28244;DHT22;15510;52.512;13.300;2022-10-17T03:19:28;14.70;99.90
28244;DHT22;15510;52.512;13.300;2022-10-17T03:21:54;14.60;99.90
28244;DHT22;15510;52.512;13.300;2022-10-17T03:24:20;14.70;99.90
28244;DHT22;15510;52.512;13.300;2022-10-17T03:26:46;14.70;99.90
28244;DHT22;15510;52.512;13.300;2022-10-17T03:29:12;14.70;99.90
28244;DHT22;15510;52.512;13.300;2022-10-17T03:31:38;14.70;99.90
28244;DHT22;15510;52.512;13.300;2022-10-17T03:34:06;14.70;99.90
28244;DHT22;15510;52.512;13.300;2022-10-17T03:36:31;14.70;99.90
28244;DHT22;15510;52.512;13.300;2022-10-17T03:38:57;14.70;99.90
28244;DHT22;15510;52.512;13.300;2022-10-17T03:41:22;14.70;99.90
28244;DHT22;15510;52.512;13.300;2022-10-17T03:43:52;14.70;99.90
28244;DHT22;15510;52.512;13.300;2022-10-17T03:46:19;14.70;99.90
28244;DHT22;15510;52.512;13.300;2022-10-17T03:48:45;14.70;99.90
28244;DHT22;15510;52.512;13.300;2022-10-17T03:51:11;14.70;99.90
28244;DHT22;15510;52.512;13.300;2022-10-17T03:53:44;14.70;99.90
28244;DHT22;15510;52.512;13.300;2022-10-17T03:56:17;14.70;99.90
28244;DHT22;15510;52.512;13.300;2022-10-17T03:58:48;14.60;99.90
28244;DHT22;15510;52.512;13.300;2022-10-17T04:01:16;14.60;99.90
28244;DHT22;15510;52.512;13.300;2022-10-17T04:03:48;14.60;99.90
28244;DHT22;15510;52.512;13.300;2022-10-17T04:06:13;14.60;99.90
28244;DHT22;15510;52.512;13.300;2022-10-17T04:08:42;14.60;99.90
28244;DHT22;15510;52.512;13.300;2022-10-17T04:11:19;14.60;99.90
28244;DHT22;15510;52.512;13.300;2022-10-17T04:13:46;14.60;99.90
28244;DHT22;15510;52.512;13.300;2022-10-17T04:16:14;14.50;99.90
28244;DHT22;15510;52.512;13.300;2022-10-17T04:18:58;14.50;99.90
28244;DHT22;15510;52.512;13.300;2022-10-17T04:21:27;14.50;99.90
28244;DHT22;15510;52.512;13.300;2022-10-17T04:23:58;14.50;99.90
28244;DHT22;15510;52.512;13.300;2022-10-17T04:26:40;14.50;99.90
28244;DHT22;15510;52.512;13.300;2022-10-17T04:29:06;14.50;99.90
28244;DHT22;15510;52.512;13.300;2022-10-17T04:31:32;14.50;99.90
28244;DHT22;15510;52.512;13.300;2022-10-17T04:34:18;14.40;99.90
28244;DHT22;15510;52.512;13.300;2022-10-17T04:36:44;14.50;99.90
28244;DHT22;15510;52.512;13.300;2022-10-17T04:39:11;14.40;99.90
28244;DHT22;15510;52.512;13.300;2022-10-17T04:41:37;14.40;99.90
28244;DHT22;15510;52.512;13.300;2022-10-17T04:44:03;14.40;99.90
28244;DHT22;15510;52.512;13.300;2022-10-17T04:46:32;14.40;99.90
28244;DHT22;15510;52.512;13.300;2022-10-17T04:48:59;14.40;99.90
28244;DHT22;15510;52.512;13.300;2022-10-17T04:51:24;14.40;99.90
28244;DHT22;15510;52.512;13.300;2022-10-17T04:54:08;14.40;99.90
28244;DHT22;15510;52.512;13.300;2022-10-17T04:56:36;14.40;99.90
28244;DHT22;15510;52.512;13.300;2022-10-17T04:59:02;14.40;99.90
28244;DHT22;15510;52.512;13.300;2022-10-17T05:01:27;14.40;99.90
28244;DHT22;15510;52.512;13.300;2022-10-17T05:03:53;14.40;99.90
28244;DHT22;15510;52.512;13.300;2022-10-17T05:06:23;14.40;99.90
28244;DHT22;15510;52.512;13.300;2022-10-17T05:09:07;14.40;99.90
28244;DHT22;15510;52.512;13.300;2022-10-17T05:11:33;14.40;99.90
28244;DHT22;15510;52.512;13.300;2022-10-17T05:14:01;14.40;99.90
28244;DHT22;15510;52.512;13.300;2022-10-17T05:16:28;14.40;99.90
28244;DHT22;15510;52.512;13.300;2022-10-17T05:18:56;14.40;99.90
28244;DHT22;15510;52.512;13.300;2022-10-17T05:21:23;14.40;99.90
28244;DHT22;15510;52.512;13.300;2022-10-17T05:23:50;14.40;99.90
28244;DHT22;15510;52.512;13.300;2022-10-17T05:26:16;14.30;99.90
28244;DHT22;15510;52.512;13.300;2022-10-17T05:28:42;14.40;99.90
28244;DHT22;15510;52.512;13.300;2022-10-17T05:31:10;14.40;99.90
28244;DHT22;15510;52.512;13.300;2022-10-17T05:33:37;14.40;99.90
28244;DHT22;15510;52.512;13.300;2022-10-17T05:36:03;14.40;99.90
28244;DHT22;15510;52.512;13.300;2022-10-17T05:38:28;14.50;99.90
28244;DHT22;15510;52.512;13.300;2022-10-17T05:40:58;14.50;99.90
28244;DHT22;15510;52.512;13.300;2022-10-17T05:43:25;14.50;99.90
28244;DHT22;15510;52.512;13.300;2022-10-17T05:45:52;14.40;99.90
28244;DHT22;15510;52.512;13.300;2022-10-17T05:48:20;14.40;99.90
28244;DHT22;15510;52.512;13.300;2022-10-17T05:50:46;14.40;99.90
28244;DHT22;15510;52.512;13.300;2022-10-17T05:53:15;14.40;99.90
28244;DHT22;15510;52.512;13.300;2022-10-17T05:55:55;14.40;99.90
28244;DHT22;15510;52.512;13.300;2022-10-17T05:58:21;14.40;99.90
28244;DHT22;15510;52.512;13.300;2022-10-17T06:00:48;14.50;99.90
28244;DHT22;15510;52.512;13.300;2022-10-17T06:03:15;14.50;99.90
28244;DHT22;15510;52.512;13.300;2022-10-17T06:05:40;14.50;99.90
28244;DHT22;15510;52.512;13.300;2022-10-17T06:08:06;14.50;99.90
28244;DHT22;15510;52.512;13.300;2022-10-17T06:10:34;14.50;99.90
28244;DHT22;15510;52.512;13.300;2022-10-17T06:13:00;14.60;99.90
28244;DHT22;15510;52.512;13.300;2022-10-17T06:15:26;14.60;99.90
28244;DHT22;15510;52.512;13.300;2022-10-17T06:18:00;14.70;99.90
28244;DHT22;15510;52.512;13.300;2022-10-17T06:20:25;14.70;99.90
28244;DHT22;15510;52.512;13.300;2022-10-17T06:22:51;14.70;99.90
28244;DHT22;15510;52.512;13.300;2022-10-17T06:25:26;14.70;99.90
28244;DHT22;15510;52.512;13.300;2022-10-17T06:27:53;14.80;99.90
28244;DHT22;15510;52.512;13.300;2022-10-17T06:30:20;14.80;99.90
28244;DHT22;15510;52.512;13.300;2022-10-17T06:32:46;14.90;99.90
28244;DHT22;15510;52.512;13.300;2022-10-17T06:35:12;14.90;99.90
28244;DHT22;15510;52.512;13.300;2022-10-17T06:42:55;15.10;99.90
28244;DHT22;15510;52.512;13.300;2022-10-17T06:45:24;15.10;99.90
28244;DHT22;15510;52.512;13.300;2022-10-17T06:48:22;15.10;99.90
28244;DHT22;15510;52.512;13.300;2022-10-17T06:51:06;15.10;99.90
28244;DHT22;15510;52.512;13.300;2022-10-17T06:53:43;15.10;99.90
28244;DHT22;15510;52.512;13.300;2022-10-17T06:56:25;15.10;99.90
28244;DHT22;15510;52.512;13.300;2022-10-17T06:59:09;15.00;99.90
28244;DHT22;15510;52.512;13.300;2022-10-17T07:01:37;15.20;99.90
28244;DHT22;15510;52.512;13.300;2022-10-17T07:04:03;15.20;99.90
28244;DHT22;15510;52.512;13.300;2022-10-17T07:06:30;15.20;99.90
28244;DHT22;15510;52.512;13.300;2022-10-17T07:08:59;15.30;99.90
28244;DHT22;15510;52.512;13.300;2022-10-17T07:11:27;15.40;99.90
28244;DHT22;15510;52.512;13.300;2022-10-17T07:13:53;15.50;99.90
28244;DHT22;15510;52.512;13.300;2022-10-17T07:16:20;15.60;99.90
28244;DHT22;15510;52.512;13.300;2022-10-17T07:18:50;15.60;99.90
28244;DHT22;15510;52.512;13.300;2022-10-17T07:21:17;15.70;99.90
28244;DHT22;15510;52.512;13.300;2022-10-17T07:23:43;15.60;99.90
28244;DHT22;15510;52.512;13.300;2022-10-17T07:26:11;15.70;99.90
28244;DHT22;15510;52.512;13.300;2022-10-17T07:28:41;15.70;99.90
28244;DHT22;15510;52.512;13.300;2022-10-17T07:31:21;15.70;99.90
28244;DHT22;15510;52.512;13.300;2022-10-17T07:33:47;15.80;99.90
28244;DHT22;15510;52.512;13.300;2022-10-17T07:36:14;15.80;99.90
28244;DHT22;15510;52.512;13.300;2022-10-17T07:38:41;15.90;99.90
28244;DHT22;15510;52.512;13.300;2022-10-17T07:41:08;16.00;99.90
28244;DHT22;15510;52.512;13.300;2022-10-17T07:43:36;16.00;99.90
28244;DHT22;15510;52.512;13.300;2022-10-17T07:46:02;16.10;99.90
28244;DHT22;15510;52.512;13.300;2022-10-17T07:48:29;16.20;99.90
28244;DHT22;15510;52.512;13.300;2022-10-17T07:50:55;16.20;99.90
28244;DHT22;15510;52.512;13.300;2022-10-17T07:53:21;16.30;99.90
28244;DHT22;15510;52.512;13.300;2022-10-17T07:55:46;16.30;99.90
28244;DHT22;15510;52.512;13.300;2022-10-17T07:58:14;16.40;99.90
28244;DHT22;15510;52.512;13.300;2022-10-17T08:00:40;16.50;99.90
28244;DHT22;15510;52.512;13.300;2022-10-17T08:03:06;16.60;99.90
28244;DHT22;15510;52.512;13.300;2022-10-17T08:05:32;16.60;99.90
28244;DHT22;15510;52.512;13.300;2022-10-17T08:07:58;16.70;99.90
28244;DHT22;15510;52.512;13.300;2022-10-17T08:10:24;16.80;99.90
28244;DHT22;15510;52.512;13.300;2022-10-17T08:12:55;16.90;99.90
28244;DHT22;15510;52.512;13.300;2022-10-17T08:15:21;17.00;99.90
28244;DHT22;15510;52.512;13.300;2022-10-17T08:17:47;17.10;99.90
28244;DHT22;15510;52.512;13.300;2022-10-17T08:20:13;17.10;99.90
28244;DHT22;15510;52.512;13.300;2022-10-17T08:22:39;17.30;99.90
28244;DHT22;15510;52.512;13.300;2022-10-17T08:25:06;17.40;99.90
28244;DHT22;15510;52.512;13.300;2022-10-17T08:27:32;17.50;99.90
28244;DHT22;15510;52.512;13.300;2022-10-17T08:29:58;17.50;99.90
28244;DHT22;15510;52.512;13.300;2022-10-17T08:32:26;17.60;99.90
28244;DHT22;15510;52.512;13.300;2022-10-17T08:34:53;17.60;99.90
28244;DHT22;15510;52.512;13.300;2022-10-17T08:37:20;17.60;99.90
28244;DHT22;15510;52.512;13.300;2022-10-17T08:39:46;17.60;99.90
28244;DHT22;15510;52.512;13.300;2022-10-17T08:42:51;17.70;99.90
28244;DHT22;15510;52.512;13.300;2022-10-17T08:45:34;17.80;99.90
28244;DHT22;15510;52.512;13.300;2022-10-17T08:48:07;17.90;99.90
28244;DHT22;15510;52.512;13.300;2022-10-17T08:50:42;18.10;99.90
28244;DHT22;15510;52.512;13.300;2022-10-17T08:53:34;18.20;99.90
28244;DHT22;15510;52.512;13.300;2022-10-17T08:56:09;18.30;99.90
28244;DHT22;15510;52.512;13.300;2022-10-17T08:58:37;18.40;99.90
28244;DHT22;15510;52.512;13.300;2022-10-17T09:09:54;18.80;99.90
28244;DHT22;15510;52.512;13.300;2022-10-17T09:13:02;18.90;99.90
28244;DHT22;15510;52.512;13.300;2022-10-17T09:16:07;18.90;99.90
28244;DHT22;15510;52.512;13.300;2022-10-17T09:18:38;19.00;99.90
28244;DHT22;15510;52.512;13.300;2022-10-17T09:23:48;19.10;99.90
28244;DHT22;15510;52.512;13.300;2022-10-17T09:26:15;19.10;99.90
28244;DHT22;15510;52.512;13.300;2022-10-17T09:28:42;19.20;99.90
28244;DHT22;15510;52.512;13.300;2022-10-17T09:31:20;19.30;99.90
28244;DHT22;15510;52.512;13.300;2022-10-17T09:33:50;19.30;99.90
28244;DHT22;15510;52.512;13.300;2022-10-17T09:36:17;19.40;99.90
28244;DHT22;15510;52.512;13.300;2022-10-17T09:38:48;19.50;99.90
28244;DHT22;15510;52.512;13.300;2022-10-17T09:41:34;19.60;99.90
28244;DHT22;15510;52.512;13.300;2022-10-17T09:46:38;19.90;99.90
28244;DHT22;15510;52.512;13.300;2022-10-17T09:49:16;19.80;99.90
28244;DHT22;15510;52.512;13.300;2022-10-17T09:51:42;19.90;99.90
28244;DHT22;15510;52.512;13.300;2022-10-17T09:54:19;20.00;99.90
28244;DHT22;15510;52.512;13.300;2022-10-17T09:57:02;20.10;99.90
28244;DHT22;15510;52.512;13.300;2022-10-17T10:02:27;20.40;99.90
28244;DHT22;15510;52.512;13.300;2022-10-17T10:05:04;20.40;99.90
28244;DHT22;15510;52.512;13.300;2022-10-17T10:07:34;20.50;99.90
28244;DHT22;15510;52.512;13.300;2022-10-17T10:10:00;20.70;99.90
28244;DHT22;15510;52.512;13.300;2022-10-17T10:12:31;20.80;99.90
28244;DHT22;15510;52.512;13.300;2022-10-17T10:14:57;21.00;99.90
28244;DHT22;15510;52.512;13.300;2022-10-17T10:17:37;21.20;99.90
28244;DHT22;15510;52.512;13.300;2022-10-17T10:20:34;21.30;99.90
28244;DHT22;15510;52.512;13.300;2022-10-17T10:23:10;21.40;99.90
28244;DHT22;15510;52.512;13.300;2022-10-17T10:25:37;21.50;99.90
28244;DHT22;15510;52.512;13.300;2022-10-17T10:28:09;21.50;99.90
28244;DHT22;15510;52.512;13.300;2022-10-17T10:30:35;21.50;99.90
28244;DHT22;15510;52.512;13.300;2022-10-17T10:33:01;21.50;99.90
28244;DHT22;15510;52.512;13.300;2022-10-17T10:35:34;21.50;99.90
28244;DHT22;15510;52.512;13.300;2022-10-17T10:38:02;21.60;99.90
28244;DHT22;15510;52.512;13.300;2022-10-17T10:40:43;21.70;99.90
28244;DHT22;15510;52.512;13.300;2022-10-17T10:43:20;21.80;99.90
28244;DHT22;15510;52.512;13.300;2022-10-17T10:45:48;22.10;99.90
28244;DHT22;15510;52.512;13.300;2022-10-17T10:48:20;22.30;99.90
28244;DHT22;15510;52.512;13.300;2022-10-17T10:50:49;22.50;99.90
28244;DHT22;15510;52.512;13.300;2022-10-17T10:56:18;22.90;99.90
28244;DHT22;15510;52.512;13.300;2022-10-17T11:04:19;24.10;99.90
28244;DHT22;15510;52.512;13.300;2022-10-17T11:06:46;24.70;99.90
28244;DHT22;15510;52.512;13.300;2022-10-17T11:12:20;25.30;99.90
28244;DHT22;15510;52.512;13.300;2022-10-17T11:15:15;25.60;99.90
28244;DHT22;15510;52.512;13.300;2022-10-17T11:17:59;25.90;99.90
28244;DHT22;15510;52.512;13.300;2022-10-17T11:25:44;25.90;99.90
28244;DHT22;15510;52.512;13.300;2022-10-17T11:28:13;25.80;99.90
28244;DHT22;15510;52.512;13.300;2022-10-17T11:30:52;25.80;99.90
28244;DHT22;15510;52.512;13.300;2022-10-17T11:33:38;25.70;99.90
28244;DHT22;15510;52.512;13.300;2022-10-17T11:36:08;25.60;99.90
28244;DHT22;15510;52.512;13.300;2022-10-17T11:38:47;25.30;99.90
28244;DHT22;15510;52.512;13.300;2022-10-17T11:46:50;24.90;99.90
28244;DHT22;15510;52.512;13.300;2022-10-17T11:49:23;24.80;99.90
28244;DHT22;15510;52.512;13.300;2022-10-17T11:52:09;24.70;99.90
28244;DHT22;15510;52.512;13.300;2022-10-17T11:54:59;24.60;99.90
28244;DHT22;15510;52.512;13.300;2022-10-17T11:57:34;24.40;99.90
28244;DHT22;15510;52.512;13.300;2022-10-17T12:06:08;24.50;99.90
28244;DHT22;15510;52.512;13.300;2022-10-17T12:08:57;24.60;99.90
28244;DHT22;15510;52.512;13.300;2022-10-17T12:11:48;24.60;99.90
28244;DHT22;15510;52.512;13.300;2022-10-17T12:17:04;24.70;99.90
28244;DHT22;15510;52.512;13.300;2022-10-17T12:19:32;24.90;99.90
28244;DHT22;15510;52.512;13.300;2022-10-17T12:22:03;24.90;99.90
28244;DHT22;15510;52.512;13.300;2022-10-17T12:24:36;25.00;99.90
28244;DHT22;15510;52.512;13.300;2022-10-17T12:27:33;25.10;99.90
28244;DHT22;15510;52.512;13.300;2022-10-17T12:35:25;25.80;99.90
28244;DHT22;15510;52.512;13.300;2022-10-17T12:46:00;27.70;99.90
28244;DHT22;15510;52.512;13.300;2022-10-17T12:51:08;28.90;99.90
28244;DHT22;15510;52.512;13.300;2022-10-17T12:56:29;28.00;99.90
28244;DHT22;15510;52.512;13.300;2022-10-17T12:58:57;27.50;99.90
28244;DHT22;15510;52.512;13.300;2022-10-17T13:01:27;26.90;99.90
28244;DHT22;15510;52.512;13.300;2022-10-17T13:03:54;26.30;99.90
28244;DHT22;15510;52.512;13.300;2022-10-17T13:06:22;25.70;99.90
28244;DHT22;15510;52.512;13.300;2022-10-17T13:08:55;25.30;99.90
28244;DHT22;15510;52.512;13.300;2022-10-17T13:11:29;24.90;99.90
28244;DHT22;15510;52.512;13.300;2022-10-17T13:13:58;24.60;99.90
28244;DHT22;15510;52.512;13.300;2022-10-17T13:16:36;24.50;99.90
28244;DHT22;15510;52.512;13.300;2022-10-17T13:19:13;24.40;99.90
28244;DHT22;15510;52.512;13.300;2022-10-17T13:21:57;24.40;99.90
28244;DHT22;15510;52.512;13.300;2022-10-17T13:24:32;24.30;99.90
28244;DHT22;15510;52.512;13.300;2022-10-17T13:26:58;24.20;99.90
28244;DHT22;15510;52.512;13.300;2022-10-17T13:29:26;24.20;99.90
28244;DHT22;15510;52.512;13.300;2022-10-17T13:31:58;24.10;99.90
28244;DHT22;15510;52.512;13.300;2022-10-17T13:34:27;24.10;99.90
28244;DHT22;15510;52.512;13.300;2022-10-17T13:36:56;24.10;99.90
28244;DHT22;15510;52.512;13.300;2022-10-17T13:39:25;24.00;99.90
28244;DHT22;15510;52.512;13.300;2022-10-17T13:41:53;24.00;99.90
28244;DHT22;15510;52.512;13.300;2022-10-17T13:44:27;23.90;99.90
28244;DHT22;15510;52.512;13.300;2022-10-17T13:46:56;23.80;99.90
28244;DHT22;15510;52.512;13.300;2022-10-17T13:49:31;23.80;99.90
28244;DHT22;15510;52.512;13.300;2022-10-17T13:51:58;23.70;99.90
28244;DHT22;15510;52.512;13.300;2022-10-17T13:54:39;23.60;99.90
28244;DHT22;15510;52.512;13.300;2022-10-17T13:57:30;23.40;99.90
28244;DHT22;15510;52.512;13.300;2022-10-17T14:00:03;23.50;99.90
28244;DHT22;15510;52.512;13.300;2022-10-17T14:02:39;23.40;99.90
28244;DHT22;15510;52.512;13.300;2022-10-17T14:05:12;23.40;99.90
28244;DHT22;15510;52.512;13.300;2022-10-17T14:07:41;23.30;99.90
28244;DHT22;15510;52.512;13.300;2022-10-17T14:10:30;23.30;99.90
28244;DHT22;15510;52.512;13.300;2022-10-17T14:12:57;23.30;99.90
28244;DHT22;15510;52.512;13.300;2022-10-17T14:15:28;23.20;99.90
28244;DHT22;15510;52.512;13.300;2022-10-17T14:18:00;23.20;99.90
28244;DHT22;15510;52.512;13.300;2022-10-17T14:20:26;23.10;99.90
28244;DHT22;15510;52.512;13.300;2022-10-17T14:22:54;23.20;99.90
28244;DHT22;15510;52.512;13.300;2022-10-17T14:25:36;23.20;99.90
28244;DHT22;15510;52.512;13.300;2022-10-17T14:28:06;23.10;99.90
28244;DHT22;15510;52.512;13.300;2022-10-17T14:30:38;23.10;99.90
28244;DHT22;15510;52.512;13.300;2022-10-17T14:33:14;23.00;99.90
28244;DHT22;15510;52.512;13.300;2022-10-17T14:35:51;23.00;99.90
28244;DHT22;15510;52.512;13.300;2022-10-17T14:38:17;22.90;99.90
28244;DHT22;15510;52.512;13.300;2022-10-17T14:40:51;22.80;99.90
28244;DHT22;15510;52.512;13.300;2022-10-17T14:43:21;22.80;99.90
28244;DHT22;15510;52.512;13.300;2022-10-17T14:45:48;22.80;99.90
28244;DHT22;15510;52.512;13.300;2022-10-17T14:48:21;22.60;99.90
28244;DHT22;15510;52.512;13.300;2022-10-17T14:53:36;22.50;99.90
28244;DHT22;15510;52.512;13.300;2022-10-17T14:56:19;22.40;99.90
28244;DHT22;15510;52.512;13.300;2022-10-17T14:58:45;22.40;99.90
28244;DHT22;15510;52.512;13.300;2022-10-17T15:01:11;22.30;99.90
28244;DHT22;15510;52.512;13.300;2022-10-17T15:03:36;22.30;99.90
28244;DHT22;15510;52.512;13.300;2022-10-17T15:06:20;22.30;99.90
28244;DHT22;15510;52.512;13.300;2022-10-17T15:08:46;22.30;99.90
28244;DHT22;15510;52.512;13.300;2022-10-17T15:11:11;22.30;99.90
28244;DHT22;15510;52.512;13.300;2022-10-17T15:13:38;22.30;99.90
28244;DHT22;15510;52.512;13.300;2022-10-17T15:16:17;22.20;99.90
28244;DHT22;15510;52.512;13.300;2022-10-17T15:18:44;22.10;99.90
28244;DHT22;15510;52.512;13.300;2022-10-17T15:21:14;22.00;99.90
28244;DHT22;15510;52.512;13.300;2022-10-17T15:23:40;21.90;99.90
28244;DHT22;15510;52.512;13.300;2022-10-17T15:26:13;21.80;99.90
28244;DHT22;15510;52.512;13.300;2022-10-17T15:28:40;21.80;99.90
28244;DHT22;15510;52.512;13.300;2022-10-17T15:31:11;21.70;99.90
28244;DHT22;15510;52.512;13.300;2022-10-17T15:33:37;21.60;99.90
28244;DHT22;15510;52.512;13.300;2022-10-17T15:36:03;21.50;99.90
28244;DHT22;15510;52.512;13.300;2022-10-17T15:38:29;21.40;99.90
28244;DHT22;15510;52.512;13.300;2022-10-17T15:40:55;21.30;99.90
28244;DHT22;15510;52.512;13.300;2022-10-17T15:43:20;21.30;99.90
28244;DHT22;15510;52.512;13.300;2022-10-17T15:45:46;21.20;99.90
28244;DHT22;15510;52.512;13.300;2022-10-17T15:48:19;21.20;99.90
28244;DHT22;15510;52.512;13.300;2022-10-17T15:50:50;21.20;99.90
28244;DHT22;15510;52.512;13.300;2022-10-17T15:53:15;21.30;99.90
28244;DHT22;15510;52.512;13.300;2022-10-17T15:55:41;21.20;99.90
28244;DHT22;15510;52.512;13.300;2022-10-17T15:58:13;21.20;99.90
28244;DHT22;15510;52.512;13.300;2022-10-17T16:00:39;21.20;99.90
28244;DHT22;15510;52.512;13.300;2022-10-17T16:03:05;21.10;99.90
28244;DHT22;15510;52.512;13.300;2022-10-17T16:05:30;21.10;99.90
28244;DHT22;15510;52.512;13.300;2022-10-17T16:07:56;21.00;99.90
28244;DHT22;15510;52.512;13.300;2022-10-17T16:10:23;20.90;99.90
28244;DHT22;15510;52.512;13.300;2022-10-17T16:12:50;20.80;99.90
28244;DHT22;15510;52.512;13.300;2022-10-17T16:15:20;20.90;99.90
28244;DHT22;15510;52.512;13.300;2022-10-17T16:17:48;20.90;99.90
28244;DHT22;15510;52.512;13.300;2022-10-17T16:20:15;20.90;99.90
28244;DHT22;15510;52.512;13.300;2022-10-17T16:22:43;20.90;99.90
28244;DHT22;15510;52.512;13.300;2022-10-17T16:25:24;20.80;99.90
28244;DHT22;15510;52.512;13.300;2022-10-17T16:27:52;20.70;99.90
28244;DHT22;15510;52.512;13.300;2022-10-17T16:30:19;20.60;99.90
28244;DHT22;15510;52.512;13.300;2022-10-17T16:32:45;20.60;99.90
28244;DHT22;15510;52.512;13.300;2022-10-17T16:35:16;20.50;99.90
28244;DHT22;15510;52.512;13.300;2022-10-17T16:37:42;20.50;99.90
28244;DHT22;15510;52.512;13.300;2022-10-17T16:40:08;20.50;99.90
28244;DHT22;15510;52.512;13.300;2022-10-17T16:42:34;20.40;99.90
28244;DHT22;15510;52.512;13.300;2022-10-17T16:45:00;20.40;99.90
28244;DHT22;15510;52.512;13.300;2022-10-17T16:47:25;20.30;99.90
28244;DHT22;15510;52.512;13.300;2022-10-17T16:49:51;20.30;99.90
28244;DHT22;15510;52.512;13.300;2022-10-17T16:52:17;20.30;99.90
28244;DHT22;15510;52.512;13.300;2022-10-17T16:54:42;20.30;99.90
28244;DHT22;15510;52.512;13.300;2022-10-17T16:57:08;20.30;99.90
28244;DHT22;15510;52.512;13.300;2022-10-17T16:59:34;20.30;99.90
28244;DHT22;15510;52.512;13.300;2022-10-17T17:01:59;20.20;99.90
28244;DHT22;15510;52.512;13.300;2022-10-17T17:04:25;20.20;99.90
28244;DHT22;15510;52.512;13.300;2022-10-17T17:06:50;20.20;99.90
28244;DHT22;15510;52.512;13.300;2022-10-17T17:09:16;20.10;99.90
28244;DHT22;15510;52.512;13.300;2022-10-17T17:11:42;20.20;99.90